QFA219 YPPH-EGLL
Flight info
| Callsign | QFA219 |
|---|---|
| Flight time | N/A |
| Altitude | 32000 |
| Route | AVNEX N752 POKIP DCT 2627S11133E 2221S10720E/N0507F340 1918S10419E 1624S10133E 1204S09728E 0849S09407E 0448S09018E/N0505F360 DCT DOGAR DCT 0122N08515E 0511N08219E DCT ANSUL/N0500F370 A465 MMV/N0506F360 Q24 RENAG/N0501F380 Q24 PUKES P628 RK G202 ZB L750 RANAH B449 KEMOR/N0497F400 B449 INRAK A240 KRS B143 TUNEK A909 RODAR N644 ADEKI DCT LAMUS DCT SARPI UM10 GOKPA UL746 ODERO DCT LUGEB DCT DEGET DCT ABETI DCT RENKA DCT INBED DCT BOMBI DCT ADKUV DCT SOGRI DCT DENUT L608 LOGAN |
| Aircraft | B789/H-SDE1E2E3FGHIJ2J3J4J5M1RWXY/LB1D1 |
Departure
| Time | 2026-04-29 12:10 |
|---|---|
| Airport | Perth International Airport (YPPH) |
Arrival
| Time | N/A |
|---|---|
| Airport | London Heathrow Airport (EGLL) |
| Time | Latitude | Longitude | Altitude | Speed | Heading |
|---|---|---|---|---|---|
| 2026-04-29 11:51 | -31.93506 | 115.96131 | 53 ft | 0 kts | 298° |
| 2026-04-29 12:03 | -31.93506 | 115.96132 | 62 ft | 2 kts | 298° |
| 2026-04-29 12:03 | -31.93515 | 115.96152 | 53 ft | 3 kts | 298° |
| 2026-04-29 12:03 | -31.93524 | 115.96172 | 52 ft | 3 kts | 286° |
| 2026-04-29 12:04 | -31.93544 | 115.96191 | 54 ft | 0 kts | 348° |
| 2026-04-29 12:04 | -31.93581 | 115.96200 | 60 ft | 0 kts | 13° |
| 2026-04-29 12:04 | -31.93580 | 115.96200 | 60 ft | 0 kts | 13° |
| 2026-04-29 12:06 | -31.93571 | 115.96203 | 57 ft | 4 kts | 14° |
| 2026-04-29 12:06 | -31.93530 | 115.96223 | 57 ft | 8 kts | 28° |
| 2026-04-29 12:06 | -31.93462 | 115.96266 | 53 ft | 14 kts | 24° |
| 2026-04-29 12:07 | -31.93357 | 115.96312 | 54 ft | 18 kts | 11° |
| 2026-04-29 12:07 | -31.93228 | 115.96331 | 55 ft | 13 kts | 6° |
| 2026-04-29 12:07 | -31.93129 | 115.96368 | 51 ft | 17 kts | 38° |
| 2026-04-29 12:07 | -31.93040 | 115.96478 | 52 ft | 20 kts | 47° |
| 2026-04-29 12:08 | -31.92949 | 115.96579 | 57 ft | 12 kts | 28° |
| 2026-04-29 12:08 | -31.92860 | 115.96623 | 58 ft | 15 kts | 47° |
| 2026-04-29 12:08 | -31.92859 | 115.96738 | 63 ft | 16 kts | 103° |
| 2026-04-29 12:08 | -31.92926 | 115.96826 | 55 ft | 16 kts | 183° |
| 2026-04-29 12:09 | -31.92979 | 115.96813 | 55 ft | 0 kts | 194° |
| 2026-04-29 12:09 | -31.92980 | 115.96813 | 56 ft | 2 kts | 194° |
| 2026-04-29 12:09 | -31.93166 | 115.96755 | 56 ft | 59 kts | 194° |
| 2026-04-29 12:10 | -31.93750 | 115.96585 | 60 ft | 115 kts | 194° |
| 2026-04-29 12:10 | -31.94695 | 115.96310 | 53 ft | 164 kts | 194° |
| 2026-04-29 12:10 | -31.95922 | 115.95955 | 183 ft | 189 kts | 191° |
| 2026-04-29 12:10 | -31.97160 | 115.95598 | 826 ft | 179 kts | 194° |
| 2026-04-29 12:11 | -31.98325 | 115.95289 | 1316 ft | 167 kts | 192° |
| 2026-04-29 12:11 | -31.99445 | 115.95009 | 1625 ft | 164 kts | 192° |
| 2026-04-29 12:11 | -32.00564 | 115.94709 | 1891 ft | 167 kts | 192° |
| 2026-04-29 12:11 | -32.01716 | 115.94386 | 2195 ft | 174 kts | 192° |
| 2026-04-29 12:12 | -32.02949 | 115.94055 | 2462 ft | 190 kts | 192° |
| 2026-04-29 12:12 | -32.04294 | 115.93697 | 2766 ft | 206 kts | 192° |
| 2026-04-29 12:12 | -32.05713 | 115.93306 | 3086 ft | 218 kts | 196° |
| 2026-04-29 12:12 | -32.06949 | 115.92244 | 3315 ft | 229 kts | 238° |
| 2026-04-29 12:13 | -32.07314 | 115.90429 | 3582 ft | 233 kts | 271° |
| 2026-04-29 12:13 | -32.06855 | 115.88618 | 3848 ft | 234 kts | 302° |
| 2026-04-29 12:13 | -32.05760 | 115.87210 | 4155 ft | 234 kts | 317° |
| 2026-04-29 12:13 | -32.04555 | 115.85925 | 4434 ft | 234 kts | 316° |
| 2026-04-29 12:14 | -32.03400 | 115.84585 | 4751 ft | 230 kts | 314° |
| 2026-04-29 12:14 | -32.02288 | 115.83219 | 5085 ft | 231 kts | 313° |
| 2026-04-29 12:14 | -32.01335 | 115.81747 | 5353 ft | 230 kts | 291° |
| 2026-04-29 12:14 | -32.00977 | 115.79896 | 5696 ft | 234 kts | 280° |
| 2026-04-29 12:15 | -32.00729 | 115.77988 | 6044 ft | 236 kts | 278° |
| 2026-04-29 12:15 | -32.00500 | 115.76083 | 6383 ft | 234 kts | 278° |
| 2026-04-29 12:15 | -32.00258 | 115.74187 | 6694 ft | 234 kts | 279° |
| 2026-04-29 12:15 | -32.00008 | 115.72282 | 7013 ft | 237 kts | 279° |
| 2026-04-29 12:16 | -31.99756 | 115.70354 | 7338 ft | 243 kts | 279° |
| 2026-04-29 12:16 | -31.99493 | 115.68332 | 7686 ft | 255 kts | 279° |
| 2026-04-29 12:16 | -31.99089 | 115.66284 | 8036 ft | 259 kts | 282° |
| 2026-04-29 12:16 | -31.98743 | 115.64215 | 8387 ft | 262 kts | 281° |
| 2026-04-29 12:17 | -31.98391 | 115.62114 | 8735 ft | 261 kts | 281° |
| 2026-04-29 12:17 | -31.98009 | 115.60018 | 9083 ft | 262 kts | 282° |
| 2026-04-29 12:17 | -31.97621 | 115.57916 | 9430 ft | 263 kts | 282° |
| 2026-04-29 12:17 | -31.97238 | 115.55808 | 9776 ft | 263 kts | 282° |
| 2026-04-29 12:18 | -31.96857 | 115.53696 | 10092 ft | 264 kts | 282° |
| 2026-04-29 12:18 | -31.96321 | 115.51633 | 10396 ft | 265 kts | 297° |
| 2026-04-29 12:18 | -31.95422 | 115.49730 | 10722 ft | 267 kts | 296° |
| 2026-04-29 12:18 | -31.94575 | 115.47736 | 11052 ft | 277 kts | 295° |
| 2026-04-29 12:19 | -31.93697 | 115.45705 | 11393 ft | 288 kts | 296° |
| 2026-04-29 12:19 | -31.92749 | 115.43582 | 11748 ft | 297 kts | 297° |
| 2026-04-29 12:19 | -31.91466 | 115.41605 | 12036 ft | 315 kts | 318° |
| 2026-04-29 12:19 | -31.89548 | 115.40247 | 12385 ft | 332 kts | 339° |
| 2026-04-29 12:20 | -31.87305 | 115.39398 | 12751 ft | 346 kts | 339° |
| 2026-04-29 12:20 | -31.84968 | 115.38524 | 13125 ft | 359 kts | 340° |
| 2026-04-29 12:20 | -31.82545 | 115.37634 | 13504 ft | 371 kts | 340° |
| 2026-04-29 12:20 | -31.80046 | 115.36709 | 13883 ft | 381 kts | 340° |
| 2026-04-29 12:21 | -31.77539 | 115.35775 | 14213 ft | 385 kts | 340° |
| 2026-04-29 12:21 | -31.74974 | 115.34827 | 14555 ft | 387 kts | 341° |
| 2026-04-29 12:21 | -31.72298 | 115.34351 | 14917 ft | 394 kts | 356° |
| 2026-04-29 12:21 | -31.69546 | 115.34602 | 15284 ft | 400 kts | 4° |
| 2026-04-29 12:22 | -31.66779 | 115.35035 | 15634 ft | 404 kts | 9° |
| 2026-04-29 12:22 | -31.64115 | 115.36155 | 16013 ft | 411 kts | 23° |
| 2026-04-29 12:22 | -31.61557 | 115.37680 | 16380 ft | 414 kts | 24° |
| 2026-04-29 12:22 | -31.58999 | 115.39259 | 16742 ft | 417 kts | 25° |
| 2026-04-29 12:23 | -31.56461 | 115.40824 | 17093 ft | 419 kts | 24° |
| 2026-04-29 12:23 | -31.53865 | 115.42391 | 17451 ft | 420 kts | 24° |
| 2026-04-29 12:23 | -31.51258 | 115.43958 | 17818 ft | 422 kts | 24° |
| 2026-04-29 12:23 | -31.48643 | 115.45544 | 18197 ft | 425 kts | 24° |
| 2026-04-29 12:24 | -31.46010 | 115.47145 | 18529 ft | 428 kts | 24° |
| 2026-04-29 12:24 | -31.43362 | 115.48748 | 18850 ft | 430 kts | 24° |
| 2026-04-29 12:24 | -31.40695 | 115.50358 | 19180 ft | 432 kts | 23° |
| 2026-04-29 12:24 | -31.38012 | 115.51978 | 19504 ft | 435 kts | 23° |
| 2026-04-29 12:25 | -31.35355 | 115.53585 | 19827 ft | 437 kts | 23° |
| 2026-04-29 12:25 | -31.32645 | 115.55221 | 20166 ft | 439 kts | 23° |
| 2026-04-29 12:25 | -31.27169 | 115.58521 | 20903 ft | 446 kts | 22° |
| 2026-04-29 12:26 | -31.24404 | 115.60188 | 21256 ft | 449 kts | 22° |
| 2026-04-29 12:26 | -31.21616 | 115.61866 | 21633 ft | 453 kts | 22° |
| 2026-04-29 12:26 | -31.18802 | 115.63558 | 22015 ft | 456 kts | 22° |
| 2026-04-29 12:26 | -31.15975 | 115.65257 | 22398 ft | 458 kts | 22° |
| 2026-04-29 12:27 | -31.13130 | 115.66967 | 22792 ft | 461 kts | 22° |
| 2026-04-29 12:27 | -31.10272 | 115.68682 | 23187 ft | 463 kts | 21° |
| 2026-04-29 12:27 | -31.07437 | 115.70383 | 23573 ft | 465 kts | 21° |
| 2026-04-29 12:27 | -31.04556 | 115.72110 | 23915 ft | 467 kts | 21° |
| 2026-04-29 12:28 | -31.01660 | 115.73845 | 24239 ft | 469 kts | 21° |
| 2026-04-29 12:28 | -30.98755 | 115.75584 | 24566 ft | 470 kts | 21° |
| 2026-04-29 12:28 | -30.95841 | 115.77328 | 24884 ft | 471 kts | 20° |
| 2026-04-29 12:28 | -30.92921 | 115.79073 | 25207 ft | 472 kts | 20° |
| 2026-04-29 12:29 | -30.89931 | 115.80541 | 25576 ft | 462 kts | 9° |
| 2026-04-29 12:29 | -30.86835 | 115.81370 | 25941 ft | 451 kts | 359° |
| 2026-04-29 12:29 | -30.83786 | 115.81574 | 26314 ft | 440 kts | 349° |
| 2026-04-29 12:29 | -30.80778 | 115.81201 | 26697 ft | 430 kts | 340° |
| 2026-04-29 12:30 | -30.77931 | 115.80294 | 27091 ft | 420 kts | 331° |
| 2026-04-29 12:30 | -30.75302 | 115.78911 | 27473 ft | 410 kts | 323° |
| 2026-04-29 12:30 | -30.72942 | 115.77119 | 27873 ft | 402 kts | 315° |
| 2026-04-29 12:30 | -30.70854 | 115.75005 | 28267 ft | 396 kts | 311° |
| 2026-04-29 12:31 | -30.68812 | 115.72856 | 28648 ft | 396 kts | 311° |
| 2026-04-29 12:31 | -30.66777 | 115.70710 | 29027 ft | 395 kts | 311° |
| 2026-04-29 12:31 | -30.64754 | 115.68563 | 29407 ft | 393 kts | 311° |
| 2026-04-29 12:31 | -30.62762 | 115.66453 | 29796 ft | 392 kts | 311° |
| 2026-04-29 12:32 | -30.60748 | 115.64326 | 30177 ft | 391 kts | 311° |
| 2026-04-29 12:32 | -30.58743 | 115.62211 | 30506 ft | 389 kts | 311° |
| 2026-04-29 12:32 | -30.56747 | 115.60102 | 30845 ft | 387 kts | 311° |
| 2026-04-29 12:32 | -30.54761 | 115.58006 | 31183 ft | 385 kts | 310° |
| 2026-04-29 12:33 | -30.52787 | 115.55925 | 31508 ft | 383 kts | 310° |
| 2026-04-29 12:33 | -30.50824 | 115.53857 | 31818 ft | 380 kts | 310° |
| 2026-04-29 12:33 | -30.48877 | 115.51807 | 32160 ft | 377 kts | 310° |
| 2026-04-29 12:33 | -30.46936 | 115.49763 | 32496 ft | 375 kts | 310° |
| 2026-04-29 12:34 | -30.45043 | 115.47771 | 32836 ft | 372 kts | 310° |
| 2026-04-29 12:34 | -30.43136 | 115.45766 | 33181 ft | 368 kts | 310° |
| 2026-04-29 12:34 | -30.41248 | 115.43782 | 33528 ft | 365 kts | 310° |
| 2026-04-29 12:34 | -30.39380 | 115.41820 | 33870 ft | 361 kts | 310° |
| 2026-04-29 12:35 | -30.37530 | 115.39878 | 34193 ft | 357 kts | 310° |
| 2026-04-29 12:35 | -30.35700 | 115.37959 | 34488 ft | 352 kts | 310° |
| 2026-04-29 12:35 | -30.33895 | 115.36067 | 34789 ft | 348 kts | 310° |
| 2026-04-29 12:35 | -30.32115 | 115.34201 | 35066 ft | 343 kts | 310° |
| 2026-04-29 12:36 | -30.30384 | 115.32387 | 35327 ft | 338 kts | 310° |
| 2026-04-29 12:36 | -30.28657 | 115.30578 | 35574 ft | 334 kts | 310° |
| 2026-04-29 12:36 | -30.26937 | 115.28775 | 35637 ft | 335 kts | 310° |
| 2026-04-29 12:37 | -30.23425 | 115.25095 | 35459 ft | 346 kts | 310° |
| 2026-04-29 12:37 | -30.21635 | 115.23231 | 35560 ft | 345 kts | 310° |
| 2026-04-29 12:37 | -30.19864 | 115.21388 | 35826 ft | 340 kts | 310° |
| 2026-04-29 12:37 | -30.18120 | 115.19567 | 36037 ft | 336 kts | 310° |
| 2026-04-29 12:38 | -30.16385 | 115.17749 | 36054 ft | 338 kts | 310° |
| 2026-04-29 12:38 | -30.14648 | 115.15931 | 35935 ft | 345 kts | 310° |
| 2026-04-29 12:38 | -30.12853 | 115.14062 | 35880 ft | 349 kts | 310° |
| 2026-04-29 12:38 | -30.11047 | 115.12188 | 36045 ft | 348 kts | 310° |
| 2026-04-29 12:39 | -30.09247 | 115.10315 | 36083 ft | 350 kts | 310° |
| 2026-04-29 12:39 | -30.05590 | 115.06501 | 36080 ft | 358 kts | 310° |
| 2026-04-29 12:40 | -30.01846 | 115.02613 | 36067 ft | 366 kts | 310° |
| 2026-04-29 12:40 | -29.98042 | 114.98662 | 36082 ft | 374 kts | 310° |
| 2026-04-29 12:41 | -29.94124 | 114.94598 | 36065 ft | 383 kts | 311° |
| 2026-04-29 12:41 | -29.90124 | 114.90454 | 36063 ft | 391 kts | 311° |
| 2026-04-29 12:42 | -29.86036 | 114.86224 | 36065 ft | 398 kts | 311° |
| 2026-04-29 12:42 | -29.81899 | 114.81947 | 36062 ft | 406 kts | 311° |
| 2026-04-29 12:43 | -29.77652 | 114.77563 | 36051 ft | 414 kts | 311° |
| 2026-04-29 12:43 | -29.73328 | 114.73104 | 36058 ft | 421 kts | 311° |
| 2026-04-29 12:44 | -29.68931 | 114.68575 | 36060 ft | 428 kts | 311° |
| 2026-04-29 12:44 | -29.64466 | 114.63983 | 36055 ft | 433 kts | 311° |
| 2026-04-29 12:45 | -29.59977 | 114.59370 | 36057 ft | 439 kts | 311° |
| 2026-04-29 12:45 | -29.55399 | 114.54674 | 36055 ft | 444 kts | 311° |
| 2026-04-29 12:46 | -29.50765 | 114.49924 | 36058 ft | 449 kts | 311° |
| 2026-04-29 12:46 | -29.46077 | 114.45127 | 36055 ft | 454 kts | 311° |
| 2026-04-29 12:47 | -29.41378 | 114.40323 | 36059 ft | 457 kts | 311° |
| 2026-04-29 12:47 | -29.36678 | 114.35534 | 36032 ft | 441 kts | 311° |
| 2026-04-29 12:47 | -29.34419 | 114.33235 | 36030 ft | 428 kts | 311° |
| 2026-04-29 12:48 | -29.32221 | 114.30989 | 36033 ft | 420 kts | 311° |
| 2026-04-29 12:48 | -29.27850 | 114.26525 | 36036 ft | 423 kts | 311° |
| 2026-04-29 12:49 | -29.23422 | 114.22028 | 36038 ft | 428 kts | 311° |
| 2026-04-29 12:49 | -29.18996 | 114.17531 | 36048 ft | 429 kts | 311° |
| 2026-04-29 12:50 | -29.14529 | 114.12998 | 36055 ft | 429 kts | 311° |
| 2026-04-29 12:50 | -29.10068 | 114.08478 | 36049 ft | 428 kts | 311° |
| 2026-04-29 12:51 | -29.05624 | 114.03979 | 36054 ft | 426 kts | 311° |
| 2026-04-29 12:51 | -29.01177 | 113.99520 | 36047 ft | 426 kts | 312° |
| 2026-04-29 12:52 | -28.96702 | 113.95152 | 36046 ft | 426 kts | 312° |
| 2026-04-29 12:52 | -28.92209 | 113.90707 | 36052 ft | 429 kts | 312° |
| 2026-04-29 12:53 | -28.87676 | 113.86261 | 36059 ft | 430 kts | 312° |
| 2026-04-29 12:53 | -28.83160 | 113.81824 | 36056 ft | 428 kts | 312° |
| 2026-04-29 12:54 | -28.78680 | 113.77431 | 36051 ft | 427 kts | 312° |
| 2026-04-29 12:54 | -28.74187 | 113.73029 | 36047 ft | 426 kts | 312° |
| 2026-04-29 12:55 | -28.69699 | 113.68637 | 36049 ft | 425 kts | 312° |
| 2026-04-29 12:55 | -28.65212 | 113.64252 | 36043 ft | 425 kts | 312° |
| 2026-04-29 12:56 | -28.60758 | 113.59904 | 36051 ft | 425 kts | 312° |
| 2026-04-29 12:56 | -28.56261 | 113.55517 | 36048 ft | 427 kts | 312° |
| 2026-04-29 12:57 | -28.51743 | 113.51118 | 36056 ft | 428 kts | 312° |
| 2026-04-29 12:57 | -28.47209 | 113.46708 | 36055 ft | 429 kts | 312° |
| 2026-04-29 12:58 | -28.42709 | 113.42336 | 36073 ft | 427 kts | 312° |
| 2026-04-29 12:58 | -28.38198 | 113.37958 | 36055 ft | 426 kts | 312° |
| 2026-04-29 12:59 | -28.33703 | 113.33600 | 36052 ft | 425 kts | 312° |
| 2026-04-29 12:59 | -28.29207 | 113.29246 | 36064 ft | 425 kts | 312° |
| 2026-04-29 13:00 | -28.24724 | 113.24909 | 36063 ft | 427 kts | 312° |
| 2026-04-29 13:00 | -28.20195 | 113.20536 | 36063 ft | 428 kts | 312° |
| 2026-04-29 13:01 | -28.15663 | 113.16162 | 36066 ft | 428 kts | 312° |
| 2026-04-29 13:01 | -28.11128 | 113.11792 | 36060 ft | 428 kts | 312° |
| 2026-04-29 13:02 | -28.06593 | 113.07426 | 36057 ft | 427 kts | 312° |
| 2026-04-29 13:02 | -28.02109 | 113.03111 | 36055 ft | 427 kts | 312° |
| 2026-04-29 13:03 | -27.97586 | 112.98711 | 36066 ft | 430 kts | 312° |
| 2026-04-29 13:03 | -27.93069 | 112.94321 | 36067 ft | 427 kts | 312° |
| 2026-04-29 13:04 | -27.88577 | 112.89962 | 36061 ft | 425 kts | 312° |
| 2026-04-29 13:04 | -27.84093 | 112.85612 | 36020 ft | 425 kts | 312° |
| 2026-04-29 13:05 | -27.79627 | 112.81278 | 36057 ft | 428 kts | 312° |
| 2026-04-29 13:05 | -27.75113 | 112.76892 | 36062 ft | 429 kts | 312° |
| 2026-04-29 13:06 | -27.70607 | 112.72515 | 36062 ft | 426 kts | 312° |
| 2026-04-29 13:06 | -27.66123 | 112.68167 | 36057 ft | 425 kts | 312° |
| 2026-04-29 13:07 | -27.61670 | 112.63850 | 36058 ft | 425 kts | 312° |
| 2026-04-29 13:07 | -27.57183 | 112.59499 | 36057 ft | 426 kts | 311° |
| 2026-04-29 13:08 | -27.52680 | 112.55128 | 36059 ft | 428 kts | 311° |
| 2026-04-29 13:08 | -27.48172 | 112.50752 | 36065 ft | 428 kts | 311° |
| 2026-04-29 13:09 | -27.43697 | 112.46409 | 36077 ft | 427 kts | 311° |
| 2026-04-29 13:09 | -27.39199 | 112.42045 | 36064 ft | 426 kts | 311° |
| 2026-04-29 13:10 | -27.34716 | 112.37700 | 36067 ft | 425 kts | 311° |
| 2026-04-29 13:10 | -27.30227 | 112.33349 | 36068 ft | 427 kts | 311° |
| 2026-04-29 13:11 | -27.25727 | 112.28986 | 36073 ft | 427 kts | 311° |
| 2026-04-29 13:11 | -27.21255 | 112.24648 | 36077 ft | 428 kts | 311° |
| 2026-04-29 13:12 | -27.16751 | 112.20278 | 36074 ft | 428 kts | 311° |
| 2026-04-29 13:12 | -27.12248 | 112.15911 | 36056 ft | 427 kts | 311° |
| 2026-04-29 13:13 | -27.07744 | 112.11544 | 36077 ft | 429 kts | 311° |
| 2026-04-29 13:13 | -27.03238 | 112.07174 | 36078 ft | 428 kts | 311° |
| 2026-04-29 13:14 | -26.98766 | 112.02840 | 36079 ft | 427 kts | 311° |
| 2026-04-29 13:14 | -26.94270 | 111.98484 | 36075 ft | 427 kts | 311° |
| 2026-04-29 13:15 | -26.89780 | 111.94137 | 36075 ft | 426 kts | 311° |
| 2026-04-29 13:15 | -26.85289 | 111.89790 | 36073 ft | 428 kts | 311° |
| 2026-04-29 13:16 | -26.80805 | 111.85443 | 36078 ft | 430 kts | 311° |
| 2026-04-29 13:16 | -26.76288 | 111.81062 | 36082 ft | 430 kts | 311° |
| 2026-04-29 13:17 | -26.71773 | 111.76686 | 36079 ft | 428 kts | 311° |
| 2026-04-29 13:17 | -26.67283 | 111.72342 | 36081 ft | 426 kts | 311° |
| 2026-04-29 13:18 | -26.62829 | 111.68040 | 36075 ft | 426 kts | 311° |
| 2026-04-29 13:18 | -26.58317 | 111.63695 | 36074 ft | 430 kts | 311° |
| 2026-04-29 13:19 | -26.53780 | 111.59322 | 36082 ft | 431 kts | 311° |
| 2026-04-29 13:19 | -26.49250 | 111.54959 | 36079 ft | 430 kts | 311° |
| 2026-04-29 13:20 | -26.44721 | 111.50600 | 36080 ft | 429 kts | 311° |
| 2026-04-29 13:20 | -26.40229 | 111.46279 | 36079 ft | 429 kts | 311° |
| 2026-04-29 13:21 | -26.35702 | 111.41925 | 36068 ft | 432 kts | 311° |
| 2026-04-29 13:21 | -26.31140 | 111.37529 | 36075 ft | 434 kts | 311° |
| 2026-04-29 13:22 | -26.26574 | 111.33129 | 36082 ft | 434 kts | 311° |
| 2026-04-29 13:22 | -26.22013 | 111.28738 | 36082 ft | 433 kts | 311° |
| 2026-04-29 13:23 | -26.17489 | 111.24388 | 36079 ft | 432 kts | 311° |
| 2026-04-29 13:23 | -26.12940 | 111.20017 | 36077 ft | 432 kts | 311° |
| 2026-04-29 13:24 | -26.08396 | 111.15656 | 36078 ft | 431 kts | 311° |
| 2026-04-29 13:24 | -26.03857 | 111.11308 | 36084 ft | 429 kts | 311° |
| 2026-04-29 13:25 | -25.99363 | 111.07013 | 36082 ft | 429 kts | 311° |
| 2026-04-29 13:25 | -25.92562 | 111.00514 | 36087 ft | 431 kts | 311° |
| 2026-04-29 13:26 | -25.88013 | 110.96163 | 36075 ft | 432 kts | 311° |
| 2026-04-29 13:26 | -25.83443 | 110.91786 | 36078 ft | 435 kts | 311° |
| 2026-04-29 13:27 | -25.78893 | 110.87426 | 36076 ft | 434 kts | 311° |
| 2026-04-29 13:27 | -25.74333 | 110.83062 | 36072 ft | 432 kts | 311° |
| 2026-04-29 13:28 | -25.69789 | 110.78718 | 36068 ft | 430 kts | 311° |
| 2026-04-29 13:28 | -25.65259 | 110.74393 | 36068 ft | 430 kts | 311° |
| 2026-04-29 13:29 | -25.60746 | 110.70080 | 36077 ft | 434 kts | 311° |
| 2026-04-29 13:29 | -25.56166 | 110.65692 | 36079 ft | 436 kts | 311° |
| 2026-04-29 13:30 | -25.51579 | 110.61296 | 36087 ft | 436 kts | 311° |
| 2026-04-29 13:30 | -25.47002 | 110.56912 | 36081 ft | 434 kts | 311° |
| 2026-04-29 13:31 | -25.42470 | 110.52575 | 36075 ft | 433 kts | 311° |
| 2026-04-29 13:31 | -25.37917 | 110.48221 | 36052 ft | 433 kts | 311° |
| 2026-04-29 13:32 | -25.33350 | 110.43850 | 36080 ft | 436 kts | 311° |
| 2026-04-29 13:32 | -25.28765 | 110.39457 | 36081 ft | 437 kts | 311° |
| 2026-04-29 13:33 | -25.24206 | 110.35087 | 36076 ft | 436 kts | 311° |
| 2026-04-29 13:33 | -25.19626 | 110.30699 | 36075 ft | 435 kts | 311° |
| 2026-04-29 13:34 | -25.15303 | 110.26108 | 36083 ft | 428 kts | 305° |
| 2026-04-29 13:34 | -25.11150 | 110.21388 | 36072 ft | 432 kts | 310° |
| 2026-04-29 13:35 | -25.06788 | 110.16834 | 36069 ft | 436 kts | 308° |
| 2026-04-29 13:35 | -25.02470 | 110.12114 | 36076 ft | 438 kts | 309° |
| 2026-04-29 13:36 | -24.98117 | 110.07482 | 36072 ft | 433 kts | 308° |
| 2026-04-29 13:36 | -24.93808 | 110.02837 | 36067 ft | 433 kts | 308° |
| 2026-04-29 13:37 | -24.89517 | 109.98247 | 36071 ft | 433 kts | 308° |
| 2026-04-29 13:37 | -24.85198 | 109.93618 | 36068 ft | 435 kts | 309° |
| 2026-04-29 13:38 | -24.80838 | 109.88955 | 36060 ft | 439 kts | 309° |
| 2026-04-29 13:38 | -24.76460 | 109.84279 | 36058 ft | 438 kts | 309° |
| 2026-04-29 13:39 | -24.72119 | 109.79645 | 36074 ft | 437 kts | 309° |
| 2026-04-29 13:39 | -24.67763 | 109.75001 | 36058 ft | 435 kts | 309° |
| 2026-04-29 13:40 | -24.63423 | 109.70377 | 36058 ft | 434 kts | 309° |
| 2026-04-29 13:40 | -24.59082 | 109.65756 | 36061 ft | 436 kts | 309° |
| 2026-04-29 13:41 | -24.54699 | 109.61096 | 36065 ft | 440 kts | 309° |
| 2026-04-29 13:41 | -24.50319 | 109.56448 | 36068 ft | 441 kts | 309° |
| 2026-04-29 13:42 | -24.45913 | 109.51772 | 36068 ft | 440 kts | 309° |
| 2026-04-29 13:42 | -24.41511 | 109.47108 | 36065 ft | 440 kts | 309° |
| 2026-04-29 13:43 | -24.37114 | 109.42453 | 36063 ft | 438 kts | 309° |
| 2026-04-29 13:43 | -24.32765 | 109.37852 | 36050 ft | 439 kts | 309° |
| 2026-04-29 13:44 | -24.28347 | 109.33184 | 36057 ft | 443 kts | 309° |
| 2026-04-29 13:44 | -24.23911 | 109.28504 | 36059 ft | 442 kts | 309° |
| 2026-04-29 13:45 | -24.19481 | 109.23832 | 36060 ft | 442 kts | 309° |
| 2026-04-29 13:45 | -24.15081 | 109.19198 | 36059 ft | 442 kts | 309° |
| 2026-04-29 13:46 | -24.10653 | 109.14537 | 36062 ft | 441 kts | 309° |
| 2026-04-29 13:46 | -24.06220 | 109.09877 | 36062 ft | 443 kts | 310° |
| 2026-04-29 13:47 | -24.01763 | 109.05197 | 36061 ft | 445 kts | 310° |
| 2026-04-29 13:47 | -23.97329 | 109.00546 | 36065 ft | 444 kts | 310° |
| 2026-04-29 13:48 | -23.92867 | 108.95870 | 36065 ft | 444 kts | 310° |
| 2026-04-29 13:48 | -23.88409 | 108.91202 | 36065 ft | 444 kts | 310° |
| 2026-04-29 13:49 | -23.83947 | 108.86535 | 36067 ft | 444 kts | 310° |
| 2026-04-29 13:49 | -23.79514 | 108.81903 | 36057 ft | 445 kts | 310° |
| 2026-04-29 13:50 | -23.75027 | 108.77220 | 36068 ft | 447 kts | 310° |
| 2026-04-29 13:50 | -23.70546 | 108.72549 | 36069 ft | 444 kts | 310° |
| 2026-04-29 13:51 | -23.66084 | 108.67898 | 36062 ft | 443 kts | 310° |
| 2026-04-29 13:51 | -23.61622 | 108.63256 | 36060 ft | 443 kts | 310° |
| 2026-04-29 13:52 | -23.57193 | 108.58650 | 36059 ft | 443 kts | 310° |
| 2026-04-29 13:52 | -23.52729 | 108.54013 | 36058 ft | 443 kts | 310° |
| 2026-04-29 13:53 | -23.48262 | 108.49379 | 36062 ft | 443 kts | 310° |
| 2026-04-29 13:53 | -23.43794 | 108.44748 | 36063 ft | 443 kts | 310° |
| 2026-04-29 13:54 | -23.39355 | 108.40150 | 36068 ft | 443 kts | 310° |
| 2026-04-29 13:54 | -23.34895 | 108.35537 | 36067 ft | 442 kts | 310° |
| 2026-04-29 13:55 | -23.30447 | 108.30939 | 36063 ft | 441 kts | 310° |
| 2026-04-29 13:55 | -23.25989 | 108.26334 | 36055 ft | 444 kts | 310° |
| 2026-04-29 13:56 | -23.21483 | 108.21686 | 36067 ft | 448 kts | 310° |
| 2026-04-29 13:56 | -23.16987 | 108.17054 | 36069 ft | 448 kts | 310° |
| 2026-04-29 13:57 | -23.12467 | 108.12400 | 36069 ft | 447 kts | 310° |
| 2026-04-29 13:57 | -23.08717 | 108.08543 | 36066 ft | 446 kts | 310° |
| 2026-04-29 13:58 | -23.03452 | 108.03131 | 36063 ft | 445 kts | 310° |
| 2026-04-29 13:58 | -22.98982 | 107.98542 | 36058 ft | 447 kts | 311° |
| 2026-04-29 13:59 | -22.94443 | 107.93886 | 36067 ft | 451 kts | 311° |
| 2026-04-29 13:59 | -22.89882 | 107.89215 | 36069 ft | 451 kts | 311° |
| 2026-04-29 14:00 | -22.85327 | 107.84552 | 36070 ft | 450 kts | 311° |
| 2026-04-29 14:00 | -22.80815 | 107.79939 | 36067 ft | 448 kts | 311° |
| 2026-04-29 14:01 | -22.76282 | 107.75307 | 36061 ft | 447 kts | 311° |
| 2026-04-29 14:01 | -22.71759 | 107.70691 | 36060 ft | 447 kts | 311° |
| 2026-04-29 14:02 | -22.67210 | 107.66051 | 36065 ft | 451 kts | 311° |
| 2026-04-29 14:02 | -22.62664 | 107.61421 | 36070 ft | 452 kts | 311° |
| 2026-04-29 14:03 | -22.58089 | 107.56765 | 36067 ft | 451 kts | 311° |
| 2026-04-29 14:03 | -22.53521 | 107.52121 | 36068 ft | 450 kts | 311° |
| 2026-04-29 14:04 | -22.48959 | 107.47486 | 36064 ft | 450 kts | 311° |
| 2026-04-29 14:04 | -22.44400 | 107.42859 | 36070 ft | 450 kts | 311° |
| 2026-04-29 14:05 | -22.39840 | 107.38235 | 36071 ft | 454 kts | 311° |
| 2026-04-29 14:05 | -22.35234 | 107.33572 | 36068 ft | 453 kts | 311° |
| 2026-04-29 14:06 | -22.30656 | 107.28912 | 36053 ft | 451 kts | 311° |
| 2026-04-29 14:06 | -22.26094 | 107.24268 | 36054 ft | 451 kts | 311° |
| 2026-04-29 14:07 | -22.21554 | 107.19654 | 36053 ft | 452 kts | 311° |
| 2026-04-29 14:07 | -22.16973 | 107.15001 | 36059 ft | 453 kts | 311° |
| 2026-04-29 14:08 | -22.12369 | 107.10331 | 36065 ft | 455 kts | 311° |
| 2026-04-29 14:08 | -22.07755 | 107.05654 | 36065 ft | 456 kts | 311° |
| 2026-04-29 14:09 | -22.03171 | 107.01012 | 36055 ft | 454 kts | 311° |
| 2026-04-29 14:09 | -21.98573 | 106.96360 | 36058 ft | 453 kts | 311° |
| 2026-04-29 14:10 | -21.93980 | 106.91717 | 36054 ft | 452 kts | 311° |
| 2026-04-29 14:10 | -21.89392 | 106.87083 | 36034 ft | 452 kts | 312° |
| 2026-04-29 14:11 | -21.84784 | 106.82433 | 36051 ft | 457 kts | 312° |
| 2026-04-29 14:11 | -21.80167 | 106.77782 | 36057 ft | 458 kts | 312° |
| 2026-04-29 14:12 | -21.75520 | 106.73101 | 36063 ft | 457 kts | 312° |
| 2026-04-29 14:12 | -21.70877 | 106.68431 | 36069 ft | 456 kts | 312° |
| 2026-04-29 14:13 | -21.66258 | 106.63787 | 36058 ft | 454 kts | 312° |
| 2026-04-29 14:13 | -21.61678 | 106.59187 | 36057 ft | 454 kts | 312° |
| 2026-04-29 14:14 | -21.57065 | 106.54554 | 35988 ft | 455 kts | 311° |
| 2026-04-29 14:14 | -21.54747 | 106.52221 | 35875 ft | 460 kts | 312° |
| 2026-04-29 14:14 | -21.52388 | 106.49872 | 35776 ft | 462 kts | 312° |
| 2026-04-29 14:15 | -21.50042 | 106.47529 | 35656 ft | 459 kts | 312° |
| 2026-04-29 14:15 | -21.47715 | 106.45193 | 35538 ft | 457 kts | 312° |
| 2026-04-29 14:15 | -21.45397 | 106.42868 | 35421 ft | 455 kts | 312° |
| 2026-04-29 14:15 | -21.43863 | 106.41334 | 35343 ft | 455 kts | 313° |
| 2026-04-29 14:16 | -21.40793 | 106.38268 | 35194 ft | 455 kts | 313° |
| 2026-04-29 14:16 | -21.38475 | 106.35950 | 35080 ft | 456 kts | 313° |
| 2026-04-29 14:16 | -21.36154 | 106.33630 | 34976 ft | 456 kts | 313° |
| 2026-04-29 14:16 | -21.33833 | 106.31313 | 34870 ft | 456 kts | 313° |
| 2026-04-29 14:17 | -21.31514 | 106.28999 | 34739 ft | 455 kts | 313° |
| 2026-04-29 14:17 | -21.29976 | 106.27465 | 34669 ft | 457 kts | 313° |
| 2026-04-29 14:17 | -21.27643 | 106.25136 | 34563 ft | 459 kts | 313° |
| 2026-04-29 14:17 | -21.25305 | 106.22806 | 34461 ft | 459 kts | 313° |
| 2026-04-29 14:18 | -21.22209 | 106.19723 | 34319 ft | 459 kts | 313° |
| 2026-04-29 14:18 | -21.19871 | 106.17394 | 34213 ft | 458 kts | 313° |
| 2026-04-29 14:18 | -21.17534 | 106.15068 | 34105 ft | 458 kts | 313° |
| 2026-04-29 14:18 | -21.15200 | 106.12745 | 33991 ft | 458 kts | 313° |
| 2026-04-29 14:19 | -21.12862 | 106.10421 | 33855 ft | 459 kts | 313° |
| 2026-04-29 14:19 | -21.11314 | 106.08882 | 33796 ft | 459 kts | 313° |
| 2026-04-29 14:19 | -21.08969 | 106.06552 | 33673 ft | 460 kts | 313° |
| 2026-04-29 14:19 | -21.06620 | 106.04218 | 33554 ft | 461 kts | 313° |
| 2026-04-29 14:20 | -21.04269 | 106.01884 | 33437 ft | 461 kts | 313° |
| 2026-04-29 14:20 | -21.01912 | 105.99545 | 33294 ft | 462 kts | 314° |
| 2026-04-29 14:20 | -20.99550 | 105.97201 | 33171 ft | 465 kts | 314° |
| 2026-04-29 14:20 | -20.96401 | 105.94080 | 33022 ft | 466 kts | 314° |
| 2026-04-29 14:21 | -20.92448 | 105.90164 | 32826 ft | 466 kts | 314° |
| 2026-04-29 14:21 | -20.90069 | 105.87808 | 32719 ft | 466 kts | 314° |
| 2026-04-29 14:21 | -20.87689 | 105.85452 | 32598 ft | 466 kts | 314° |
| 2026-04-29 14:22 | -20.84499 | 105.82298 | 32444 ft | 467 kts | 314° |
| 2026-04-29 14:22 | -20.82919 | 105.80735 | 32366 ft | 468 kts | 314° |
| 2026-04-29 14:22 | -20.80528 | 105.78372 | 32253 ft | 469 kts | 314° |
| 2026-04-29 14:22 | -20.77354 | 105.75237 | 32102 ft | 470 kts | 314° |
| 2026-04-29 14:23 | -20.73330 | 105.71265 | 31927 ft | 470 kts | 314° |
| 2026-04-29 14:23 | -20.70961 | 105.68928 | 31790 ft | 470 kts | 314° |
| 2026-04-29 14:23 | -20.68562 | 105.66562 | 31687 ft | 469 kts | 314° |
| 2026-04-29 14:24 | -20.66165 | 105.64199 | 31569 ft | 469 kts | 314° |
| 2026-04-29 14:24 | -20.63772 | 105.61841 | 31453 ft | 468 kts | 314° |
| 2026-04-29 14:24 | -20.61381 | 105.59487 | 31338 ft | 467 kts | 314° |
| 2026-04-29 14:24 | -20.58994 | 105.57137 | 31221 ft | 466 kts | 314° |
| 2026-04-29 14:25 | -20.56609 | 105.54791 | 31110 ft | 466 kts | 314° |
| 2026-04-29 14:25 | -20.54230 | 105.52451 | 30986 ft | 465 kts | 314° |
| 2026-04-29 14:25 | -20.51884 | 105.50145 | 30873 ft | 464 kts | 314° |
| 2026-04-29 14:25 | -20.49511 | 105.47813 | 30753 ft | 464 kts | 314° |
| 2026-04-29 14:26 | -20.47138 | 105.45483 | 30647 ft | 463 kts | 314° |
| 2026-04-29 14:26 | -20.44769 | 105.43157 | 30529 ft | 463 kts | 314° |
| 2026-04-29 14:26 | -20.42403 | 105.40834 | 30396 ft | 463 kts | 314° |
| 2026-04-29 14:26 | -20.40036 | 105.38513 | 30296 ft | 463 kts | 314° |
| 2026-04-29 14:27 | -20.37667 | 105.36190 | 30169 ft | 462 kts | 314° |
| 2026-04-29 14:27 | -20.35301 | 105.33871 | 30060 ft | 462 kts | 314° |
| 2026-04-29 14:27 | -20.32935 | 105.31553 | 29940 ft | 461 kts | 314° |
| 2026-04-29 14:28 | -20.28251 | 105.26968 | 29668 ft | 459 kts | 314° |
| 2026-04-29 14:28 | -20.25902 | 105.24670 | 29533 ft | 458 kts | 314° |
| 2026-04-29 14:28 | -20.23559 | 105.22379 | 29399 ft | 457 kts | 314° |
| 2026-04-29 14:28 | -20.21223 | 105.20095 | 29269 ft | 455 kts | 314° |
| 2026-04-29 14:29 | -20.18894 | 105.17819 | 29141 ft | 454 kts | 314° |
| 2026-04-29 14:29 | -20.16569 | 105.15549 | 29010 ft | 453 kts | 314° |
| 2026-04-29 14:29 | -20.14249 | 105.13284 | 28864 ft | 452 kts | 314° |
| 2026-04-29 14:29 | -20.11928 | 105.11019 | 28734 ft | 453 kts | 314° |
| 2026-04-29 14:30 | -20.09601 | 105.08748 | 28602 ft | 454 kts | 314° |
| 2026-04-29 14:30 | -20.07305 | 105.06510 | 28489 ft | 454 kts | 314° |
| 2026-04-29 14:30 | -20.04978 | 105.04243 | 28347 ft | 453 kts | 314° |
| 2026-04-29 14:30 | -20.02657 | 105.01981 | 28233 ft | 452 kts | 314° |
| 2026-04-29 14:31 | -20.00337 | 104.99722 | 28125 ft | 452 kts | 314° |
| 2026-04-29 14:31 | -19.98022 | 104.97469 | 27983 ft | 451 kts | 314° |
| 2026-04-29 14:31 | -19.95710 | 104.95219 | 27868 ft | 450 kts | 314° |
| 2026-04-29 14:31 | -19.93401 | 104.92974 | 27759 ft | 450 kts | 314° |
| 2026-04-29 14:32 | -19.91094 | 104.90730 | 27615 ft | 449 kts | 315° |
| 2026-04-29 14:32 | -19.88794 | 104.88495 | 27502 ft | 448 kts | 315° |
| 2026-04-29 14:32 | -19.86498 | 104.86265 | 27377 ft | 447 kts | 315° |
| 2026-04-29 14:32 | -19.84206 | 104.84040 | 27242 ft | 446 kts | 315° |
| 2026-04-29 14:33 | -19.81950 | 104.81850 | 27121 ft | 446 kts | 315° |
| 2026-04-29 14:33 | -19.79657 | 104.79625 | 27001 ft | 446 kts | 315° |
| 2026-04-29 14:33 | -19.77365 | 104.77402 | 26883 ft | 446 kts | 315° |
| 2026-04-29 14:33 | -19.75072 | 104.75180 | 26766 ft | 446 kts | 315° |
| 2026-04-29 14:34 | -19.72786 | 104.72964 | 26649 ft | 445 kts | 315° |
| 2026-04-29 14:34 | -19.70500 | 104.70750 | 26524 ft | 444 kts | 315° |
| 2026-04-29 14:34 | -19.68219 | 104.68542 | 26418 ft | 444 kts | 315° |
| 2026-04-29 14:34 | -19.65938 | 104.66334 | 26286 ft | 443 kts | 315° |
| 2026-04-29 14:35 | -19.63663 | 104.64133 | 26181 ft | 442 kts | 315° |
| 2026-04-29 14:35 | -19.61422 | 104.61966 | 26079 ft | 442 kts | 315° |
| 2026-04-29 14:35 | -19.59154 | 104.59773 | 25940 ft | 441 kts | 315° |
| 2026-04-29 14:35 | -19.56889 | 104.57585 | 25839 ft | 440 kts | 315° |
| 2026-04-29 14:36 | -19.54627 | 104.55399 | 25720 ft | 440 kts | 315° |
| 2026-04-29 14:36 | -19.52364 | 104.53215 | 25589 ft | 440 kts | 315° |
| 2026-04-29 14:36 | -19.50102 | 104.51031 | 25481 ft | 440 kts | 315° |
| 2026-04-29 14:36 | -19.47840 | 104.48849 | 25367 ft | 440 kts | 315° |
| 2026-04-29 14:37 | -19.45579 | 104.46669 | 25259 ft | 439 kts | 315° |
| 2026-04-29 14:37 | -19.43319 | 104.44490 | 25143 ft | 439 kts | 315° |
| 2026-04-29 14:37 | -19.41093 | 104.42345 | 25035 ft | 438 kts | 315° |
| 2026-04-29 14:37 | -19.38841 | 104.40176 | 24923 ft | 437 kts | 315° |
| 2026-04-29 14:38 | -19.36591 | 104.38010 | 24814 ft | 437 kts | 315° |
| 2026-04-29 14:38 | -19.34341 | 104.35844 | 24701 ft | 436 kts | 315° |
| 2026-04-29 14:38 | -19.32097 | 104.33685 | 24589 ft | 436 kts | 315° |
| 2026-04-29 14:38 | -19.29857 | 104.31531 | 24481 ft | 435 kts | 315° |
| 2026-04-29 14:39 | -19.27625 | 104.29366 | 24358 ft | 435 kts | 315° |
| 2026-04-29 14:39 | -19.25413 | 104.27191 | 24259 ft | 434 kts | 315° |
| 2026-04-29 14:39 | -19.23199 | 104.25019 | 24135 ft | 434 kts | 315° |
| 2026-04-29 14:39 | -19.21006 | 104.22886 | 24023 ft | 435 kts | 315° |
| 2026-04-29 14:40 | -19.18779 | 104.20721 | 23936 ft | 435 kts | 315° |
| 2026-04-29 14:40 | -19.16562 | 104.18559 | 23822 ft | 433 kts | 315° |
| 2026-04-29 14:40 | -19.14349 | 104.16398 | 23715 ft | 432 kts | 315° |
| 2026-04-29 14:40 | -19.12139 | 104.14245 | 23601 ft | 432 kts | 315° |
| 2026-04-29 14:41 | -19.09928 | 104.12095 | 23476 ft | 432 kts | 315° |
| 2026-04-29 14:41 | -19.07720 | 104.09946 | 23354 ft | 431 kts | 315° |
| 2026-04-29 14:41 | -19.05514 | 104.07799 | 23222 ft | 431 kts | 315° |
| 2026-04-29 14:41 | -19.03338 | 104.05682 | 23097 ft | 431 kts | 315° |
| 2026-04-29 14:42 | -19.01135 | 104.03540 | 22967 ft | 430 kts | 315° |
| 2026-04-29 14:42 | -18.98937 | 104.01404 | 22844 ft | 429 kts | 315° |
| 2026-04-29 14:42 | -18.96741 | 103.99272 | 22710 ft | 428 kts | 315° |
| 2026-04-29 14:42 | -18.94550 | 103.97144 | 22581 ft | 428 kts | 315° |
| 2026-04-29 14:43 | -18.92363 | 103.95020 | 22449 ft | 427 kts | 315° |
| 2026-04-29 14:43 | -18.90173 | 103.92896 | 22319 ft | 428 kts | 315° |
| 2026-04-29 14:43 | -18.87980 | 103.90768 | 22200 ft | 428 kts | 315° |
| 2026-04-29 14:43 | -18.85790 | 103.88645 | 22074 ft | 427 kts | 315° |
| 2026-04-29 14:44 | -18.83602 | 103.86524 | 21948 ft | 427 kts | 315° |
| 2026-04-29 14:44 | -18.81444 | 103.84432 | 21826 ft | 426 kts | 316° |
| 2026-04-29 14:44 | -18.79263 | 103.82320 | 21709 ft | 425 kts | 316° |
| 2026-04-29 14:44 | -18.77089 | 103.80215 | 21589 ft | 424 kts | 316° |
| 2026-04-29 14:45 | -18.74914 | 103.78110 | 21460 ft | 424 kts | 316° |
| 2026-04-29 14:45 | -18.72740 | 103.76007 | 21342 ft | 424 kts | 316° |
| 2026-04-29 14:45 | -18.70568 | 103.73906 | 21210 ft | 423 kts | 316° |
| 2026-04-29 14:45 | -18.68397 | 103.71807 | 21105 ft | 423 kts | 316° |
| 2026-04-29 14:46 | -18.66228 | 103.69711 | 20986 ft | 423 kts | 316° |
| 2026-04-29 14:46 | -18.64091 | 103.67646 | 20865 ft | 422 kts | 316° |
| 2026-04-29 14:46 | -18.61927 | 103.65556 | 20758 ft | 421 kts | 316° |
| 2026-04-29 14:46 | -18.59768 | 103.63472 | 20626 ft | 421 kts | 316° |
| 2026-04-29 14:47 | -18.57603 | 103.61383 | 20507 ft | 421 kts | 316° |
| 2026-04-29 14:47 | -18.55443 | 103.59298 | 20391 ft | 421 kts | 316° |
| 2026-04-29 14:47 | -18.53281 | 103.57213 | 20275 ft | 421 kts | 316° |
| 2026-04-29 14:47 | -18.51124 | 103.55134 | 20159 ft | 420 kts | 316° |
| 2026-04-29 14:48 | -18.48972 | 103.53061 | 20044 ft | 419 kts | 316° |
| 2026-04-29 14:48 | -18.46854 | 103.51020 | 19931 ft | 418 kts | 316° |
| 2026-04-29 14:48 | -18.44709 | 103.48954 | 19810 ft | 417 kts | 316° |
| 2026-04-29 14:48 | -18.42570 | 103.46895 | 19694 ft | 416 kts | 316° |
| 2026-04-29 14:49 | -18.40436 | 103.44841 | 19577 ft | 416 kts | 316° |
| 2026-04-29 14:49 | -18.38300 | 103.42786 | 19475 ft | 416 kts | 316° |
| 2026-04-29 14:49 | -18.36165 | 103.40734 | 19341 ft | 416 kts | 316° |
| 2026-04-29 14:49 | -18.34030 | 103.38681 | 19236 ft | 416 kts | 316° |
| 2026-04-29 14:50 | -18.31894 | 103.36628 | 19142 ft | 416 kts | 316° |
| 2026-04-29 14:50 | -18.29758 | 103.34576 | 19011 ft | 415 kts | 316° |
| 2026-04-29 14:50 | -18.27654 | 103.32556 | 18911 ft | 415 kts | 316° |
| 2026-04-29 14:50 | -18.25525 | 103.30512 | 18807 ft | 414 kts | 316° |
| 2026-04-29 14:51 | -18.23398 | 103.28471 | 18681 ft | 414 kts | 316° |
| 2026-04-29 14:51 | -18.21273 | 103.26432 | 18581 ft | 413 kts | 316° |
| 2026-04-29 14:51 | -18.19151 | 103.24397 | 18469 ft | 413 kts | 316° |
| 2026-04-29 14:51 | -18.17031 | 103.22365 | 18356 ft | 412 kts | 316° |
| 2026-04-29 14:52 | -18.14913 | 103.20335 | 18237 ft | 412 kts | 316° |
| 2026-04-29 14:52 | -18.12799 | 103.18310 | 18113 ft | 411 kts | 316° |
| 2026-04-29 14:52 | -18.10691 | 103.16291 | 17979 ft | 410 kts | 316° |
| 2026-04-29 14:52 | -18.08614 | 103.14303 | 17853 ft | 409 kts | 316° |
| 2026-04-29 14:53 | -18.06514 | 103.12293 | 17724 ft | 408 kts | 316° |
| 2026-04-29 14:53 | -18.04420 | 103.10289 | 17588 ft | 407 kts | 316° |
| 2026-04-29 14:53 | -18.02330 | 103.08291 | 17477 ft | 405 kts | 316° |
| 2026-04-29 14:53 | -18.00246 | 103.06299 | 17336 ft | 404 kts | 316° |
| 2026-04-29 14:54 | -17.98169 | 103.04312 | 17222 ft | 403 kts | 316° |
| 2026-04-29 14:54 | -17.96095 | 103.02332 | 17092 ft | 403 kts | 316° |
| 2026-04-29 14:54 | -17.94025 | 103.00355 | 16961 ft | 402 kts | 316° |
| 2026-04-29 14:54 | -17.91958 | 102.98381 | 16854 ft | 401 kts | 316° |
| 2026-04-29 14:55 | -17.89924 | 102.96439 | 16730 ft | 401 kts | 316° |
| 2026-04-29 14:55 | -17.87861 | 102.94470 | 16602 ft | 400 kts | 316° |
| 2026-04-29 14:55 | -17.85804 | 102.92508 | 16495 ft | 399 kts | 316° |
| 2026-04-29 14:55 | -17.83752 | 102.90552 | 16366 ft | 397 kts | 316° |
| 2026-04-29 14:56 | -17.81712 | 102.88607 | 16248 ft | 396 kts | 316° |
| 2026-04-29 14:56 | -17.79677 | 102.86668 | 16123 ft | 394 kts | 316° |
| 2026-04-29 14:56 | -17.77650 | 102.84737 | 16001 ft | 393 kts | 316° |
| 2026-04-29 14:56 | -17.75629 | 102.82813 | 15880 ft | 392 kts | 316° |
| 2026-04-29 14:57 | -17.73636 | 102.80916 | 15765 ft | 392 kts | 316° |
| 2026-04-29 14:57 | -17.71617 | 102.78994 | 15645 ft | 391 kts | 316° |
| 2026-04-29 14:57 | -17.69605 | 102.77080 | 15525 ft | 390 kts | 316° |
| 2026-04-29 14:57 | -17.67595 | 102.75168 | 15410 ft | 390 kts | 316° |
| 2026-04-29 14:58 | -17.65588 | 102.73260 | 15283 ft | 389 kts | 316° |
| 2026-04-29 14:58 | -17.63585 | 102.71356 | 15183 ft | 388 kts | 316° |
| 2026-04-29 14:58 | -17.61586 | 102.69456 | 15062 ft | 388 kts | 316° |
| 2026-04-29 14:58 | -17.59589 | 102.67558 | 14945 ft | 387 kts | 316° |
| 2026-04-29 14:59 | -17.57595 | 102.65665 | 14822 ft | 386 kts | 316° |
| 2026-04-29 14:59 | -17.55633 | 102.63803 | 14716 ft | 385 kts | 316° |
| 2026-04-29 14:59 | -17.53649 | 102.61920 | 14603 ft | 384 kts | 316° |
| 2026-04-29 14:59 | -17.51668 | 102.60040 | 14486 ft | 384 kts | 316° |
| 2026-04-29 15:00 | -17.49689 | 102.58164 | 14376 ft | 383 kts | 316° |
| 2026-04-29 15:00 | -17.47718 | 102.56295 | 14267 ft | 382 kts | 316° |
| 2026-04-29 15:00 | -17.45751 | 102.54429 | 14150 ft | 381 kts | 316° |
| 2026-04-29 15:00 | -17.43786 | 102.52568 | 14039 ft | 381 kts | 316° |
| 2026-04-29 15:01 | -17.41824 | 102.50710 | 13921 ft | 380 kts | 316° |
| 2026-04-29 15:01 | -17.39865 | 102.48854 | 13818 ft | 379 kts | 316° |
| 2026-04-29 15:01 | -17.37937 | 102.47028 | 13686 ft | 378 kts | 316° |
| 2026-04-29 15:01 | -17.35986 | 102.45183 | 13560 ft | 377 kts | 316° |
| 2026-04-29 15:02 | -17.34041 | 102.43341 | 13426 ft | 377 kts | 316° |
| 2026-04-29 15:02 | -17.32095 | 102.41501 | 13297 ft | 377 kts | 316° |
| 2026-04-29 15:02 | -17.30151 | 102.39664 | 13176 ft | 376 kts | 316° |
| 2026-04-29 15:02 | -17.28213 | 102.37832 | 13055 ft | 375 kts | 316° |
| 2026-04-29 15:03 | -17.26279 | 102.36003 | 12929 ft | 374 kts | 316° |
| 2026-04-29 15:03 | -17.24350 | 102.34181 | 12800 ft | 373 kts | 316° |
| 2026-04-29 15:03 | -17.22427 | 102.32364 | 12678 ft | 372 kts | 316° |
| 2026-04-29 15:03 | -17.20533 | 102.30576 | 12547 ft | 372 kts | 316° |
| 2026-04-29 15:04 | -17.18614 | 102.28765 | 12441 ft | 371 kts | 316° |
| 2026-04-29 15:04 | -17.16700 | 102.26959 | 12301 ft | 370 kts | 316° |
| 2026-04-29 15:04 | -17.14790 | 102.25156 | 12192 ft | 370 kts | 316° |
| 2026-04-29 15:04 | -17.12882 | 102.23357 | 12086 ft | 369 kts | 316° |
| 2026-04-29 15:05 | -17.10978 | 102.21562 | 11942 ft | 368 kts | 316° |
| 2026-04-29 15:05 | -17.09077 | 102.19770 | 11839 ft | 368 kts | 316° |
| 2026-04-29 15:05 | -17.07180 | 102.17982 | 11729 ft | 367 kts | 316° |
| 2026-04-29 15:05 | -17.05287 | 102.16199 | 11593 ft | 366 kts | 316° |
| 2026-04-29 15:06 | -17.03420 | 102.14440 | 11484 ft | 366 kts | 316° |
| 2026-04-29 15:06 | -17.01533 | 102.12664 | 11361 ft | 365 kts | 316° |
| 2026-04-29 15:06 | -16.99651 | 102.10892 | 11240 ft | 364 kts | 316° |
| 2026-04-29 15:06 | -16.97771 | 102.09124 | 11122 ft | 363 kts | 316° |
| 2026-04-29 15:07 | -16.95898 | 102.07362 | 11009 ft | 363 kts | 316° |
| 2026-04-29 15:07 | -16.94020 | 102.05596 | 10893 ft | 363 kts | 316° |
| 2026-04-29 15:07 | -16.92145 | 102.03833 | 10779 ft | 362 kts | 316° |
| 2026-04-29 15:07 | -16.90273 | 102.02075 | 10663 ft | 362 kts | 316° |
| 2026-04-29 15:08 | -16.88407 | 102.00320 | 10546 ft | 360 kts | 316° |
| 2026-04-29 15:08 | -16.86571 | 101.98595 | 10439 ft | 360 kts | 316° |
| 2026-04-29 15:08 | -16.84708 | 101.96845 | 10313 ft | 360 kts | 317° |
| 2026-04-29 15:08 | -16.83449 | 101.95663 | 10253 ft | 360 kts | 316° |